Time;durP1;ratioP1;P1;durP2;ratioP2;P2;SDS_P1;SDS_P2;PMS_P1;PMS_P2;Temp;Humidity;BMP_temperature;BMP_pressure;BME280_temperature;BME280_humidity;BME280_pressure;Samples;Min_cycle;Max_cycle;Signal;HPM_P1;HPM_P2
2023/12/16 00:02:20;;;;;;;;;;;;;;;6.52;42.18;101392.44;5095031;28;19947;-68
2023/12/16 00:04:45;;;;;;;;;;;;;;;6.56;42.46;101382.31;5102090;28;20010;-63
2023/12/16 00:07:11;;;;;;;;;;;;;;;6.50;42.65;101393.53;5116631;28;20280;-62
2023/12/16 00:09:36;;;;;;;;;;;;;;;6.49;42.38;101381.19;5115904;28;19919;-64
2023/12/16 00:12:02;;;;;;;;;;;;;;;6.49;42.31;101371.34;5113451;28;19955;-66
2023/12/16 00:14:27;;;;;;;;;;;;;;;6.50;42.75;101378.38;5112191;28;19919;-66
2023/12/16 00:16:53;;;;;;;;;;;;;;;6.55;42.21;101369.94;5093758;28;20002;-67
2023/12/16 00:19:18;;;;;;;;;;;;;;;6.54;42.60;101363.78;5095547;28;19962;-66
2023/12/16 00:21:43;;;;;;;;;;;;;;;6.56;42.42;101361.78;5097968;28;19920;-65
2023/12/16 00:24:09;;;;;;;;;;;;;;;6.56;42.19;101359.13;5105947;28;20029;-65
2023/12/16 00:26:34;;;;;;;;;;;;;;;6.55;42.46;101345.91;5116225;28;19912;-65
2023/12/16 00:29:00;;;;;;;;;;;;;;;6.56;42.79;101348.44;5114078;28;19912;-65
2023/12/16 00:31:25;;;;;;;;;;;;;;;6.60;42.68;101346.34;5116273;28;19958;-65
2023/12/16 00:33:50;;;;;;;;;;;;;;;6.61;42.42;101339.16;5113132;28;19919;-67
2023/12/16 00:36:18;;;;;;;;;;;;;;;6.56;41.68;101334.28;5109791;28;19973;-66
2023/12/16 00:38:44;;;;;;;;;;;;;;;6.58;42.57;101342.97;5115665;28;19919;-67
2023/12/16 00:41:09;;;;;;;;;;;;;;;6.59;41.94;101337.50;5087947;28;20331;-67
2023/12/16 00:43:34;;;;;;;;;;;;;;;6.59;41.82;101356.19;5110216;28;20290;-67
2023/12/16 00:46:00;;;;;;;;;;;;;;;6.62;41.45;101368.38;5113708;28;19957;-68
2023/12/16 00:48:25;;;;;;;;;;;;;;;6.63;42.47;101358.53;5109334;28;19912;-67
2023/12/16 00:50:50;;;;;;;;;;;;;;;6.65;42.30;101359.22;5109366;28;20420;-67
2023/12/16 00:53:16;;;;;;;;;;;;;;;6.67;42.45;101358.09;5096817;28;20288;-66
2023/12/16 00:55:41;;;;;;;;;;;;;;;6.68;41.95;101362.44;5115039;28;19911;-67
2023/12/16 00:58:07;;;;;;;;;;;;;;;6.71;42.35;101356.00;5095140;28;19912;-67
2023/12/16 01:00:32;;;;;;;;;;;;;;;6.72;42.38;101361.19;5112165;28;19923;-66
2023/12/16 01:02:58;;;;;;;;;;;;;;;6.74;42.22;101363.69;5100170;28;20309;-64
2023/12/16 01:05:24;;;;;;;;;;;;;;;6.73;42.62;101352.19;5093468;28;19915;-63
2023/12/16 01:07:49;;;;;;;;;;;;;;;6.76;42.65;101349.22;5098152;28;19922;-62
2023/12/16 01:10:15;;;;;;;;;;;;;;;6.81;42.38;101347.94;5106803;28;19990;-64
2023/12/16 01:12:41;;;;;;;;;;;;;;;6.83;42.57;101338.78;5097375;28;19965;-65
2023/12/16 01:15:06;;;;;;;;;;;;;;;6.85;42.67;101341.31;5101721;28;19916;-65
2023/12/16 01:17:32;;;;;;;;;;;;;;;6.87;42.52;101336.66;5103955;28;20342;-64
2023/12/16 01:19:58;;;;;;;;;;;;;;;6.90;42.39;101331.88;5100053;28;19916;-64
2023/12/16 01:22:23;;;;;;;;;;;;;;;6.89;42.36;101330.19;5104445;28;19922;-65
2023/12/16 01:24:49;;;;;;;;;;;;;;;6.90;42.45;101317.69;5103170;28;20433;-64
2023/12/16 01:27:14;;;;;;;;;;;;;;;6.93;42.42;101315.56;5105380;28;19918;-64
2023/12/16 01:29:40;;;;;;;;;;;;;;;6.95;42.23;101302.06;5103779;28;20390;-65
2023/12/16 01:32:06;;;;;;;;;;;;;;;6.96;41.93;101301.91;5105744;28;20007;-64
2023/12/16 01:34:31;;;;;;;;;;;;;;;6.97;42.16;101295.56;5103992;28;19922;-64
2023/12/16 01:36:56;;;;;;;;;;;;;;;6.91;42.53;101296.19;5101362;28;19923;-64
2023/12/16 01:39:22;;;;;;;;;;;;;;;6.92;42.24;101302.34;5101991;28;20373;-65
2023/12/16 01:41:47;;;;;;;;;;;;;;;6.94;42.36;101303.88;5105011;28;19915;-64
2023/12/16 01:44:12;;;;;;;;;;;;;;;6.98;42.83;101315.09;5104334;28;19916;-64
2023/12/16 01:46:38;;;;;;;;;;;;;;;7.02;42.32;101305.81;5102582;28;19918;-64
2023/12/16 01:49:04;;;;;;;;;;;;;;;7.05;42.45;101305.50;5099655;28;19911;-64
2023/12/16 01:51:31;;;;;;;;;;;;;;;7.06;42.37;101298.34;5103422;28;19912;-64
2023/12/16 01:53:56;;;;;;;;;;;;;;;7.03;42.37;101283.44;5069601;28;19923;-64
2023/12/16 01:56:22;;;;;;;;;;;;;;;7.01;41.99;101284.59;5099595;28;20010;-64
2023/12/16 01:58:49;;;;;;;;;;;;;;;7.02;42.92;101271.09;5103620;28;19912;-64
2023/12/16 02:01:14;;;;;;;;;;;;;;;7.05;42.27;101268.09;5103887;28;19923;-64
2023/12/16 02:03:40;;;;;;;;;;;;;;;7.00;42.17;101259.69;5101030;28;19911;-64
2023/12/16 02:06:06;;;;;;;;;;;;;;;6.99;42.85;101252.69;5104148;28;20515;-64
2023/12/16 02:08:31;;;;;;;;;;;;;;;6.98;42.58;101253.69;5103788;28;19912;-64
2023/12/16 02:10:56;;;;;;;;;;;;;;;7.01;42.89;101253.38;5105044;28;19958;-64
2023/12/16 02:13:23;;;;;;;;;;;;;;;7.01;42.88;101247.22;5102936;28;20290;-64
2023/12/16 02:15:49;;;;;;;;;;;;;;;7.02;42.77;101254.22;5103959;28;19942;-64
2023/12/16 02:18:14;;;;;;;;;;;;;;;7.02;42.42;101241.72;5104012;28;20347;-64
2023/12/16 02:20:40;;;;;;;;;;;;;;;7.05;42.52;101235.22;5101945;28;20416;-64
2023/12/16 02:23:06;;;;;;;;;;;;;;;7.05;42.53;101222.72;5102545;28;20401;-64
2023/12/16 02:25:31;;;;;;;;;;;;;;;7.05;42.65;101232.56;5100218;28;20408;-64
2023/12/16 02:27:56;;;;;;;;;;;;;;;7.08;42.21;101242.94;5101855;28;20394;-64
2023/12/16 02:30:24;;;;;;;;;;;;;;;7.08;42.44;101254.47;5100696;28;19916;-64
2023/12/16 02:32:49;;;;;;;;;;;;;;;7.10;42.34;101251.66;5093441;28;20444;-64
2023/12/16 02:35:14;;;;;;;;;;;;;;;7.08;42.41;101254.47;5096541;28;20007;-64
2023/12/16 02:37:40;;;;;;;;;;;;;;;7.05;42.47;101252.09;5091550;28;20372;-64
2023/12/16 02:40:05;;;;;;;;;;;;;;;7.04;42.51;101237.06;5093500;28;19973;-65
2023/12/16 02:42:31;;;;;;;;;;;;;;;6.81;42.52;101198.44;5092618;28;19916;-64
2023/12/16 02:44:56;;;;;;;;;;;;;;;7.01;42.17;101218.66;5111129;28;19912;-64
2023/12/16 02:47:21;;;;;;;;;;;;;;;6.98;42.02;101235.84;5112134;28;19926;-64
2023/12/16 02:49:47;;;;;;;;;;;;;;;6.96;42.24;101235.16;5095379;28;19944;-65
2023/12/16 02:52:12;;;;;;;;;;;;;;;6.97;41.77;101227.97;5110153;28;19947;-64
2023/12/16 02:54:38;;;;;;;;;;;;;;;6.97;42.23;101218.13;5090527;28;19916;-64
2023/12/16 02:57:03;;;;;;;;;;;;;;;6.97;42.44;101210.13;5095732;28;19955;-65
2023/12/16 02:59:29;;;;;;;;;;;;;;;6.99;42.28;101196.63;5092011;28;19912;-65
2023/12/16 03:01:54;;;;;;;;;;;;;;;6.95;41.60;101193.41;5096567;28;19916;-65
2023/12/16 03:04:19;;;;;;;;;;;;;;;6.94;42.31;101181.03;5094785;28;19923;-65
2023/12/16 03:06:45;;;;;;;;;;;;;;;6.91;42.17;101189.38;5093414;28;19935;-63
2023/12/16 03:09:11;;;;;;;;;;;;;;;6.91;42.20;101183.16;5093508;28;19958;-63
2023/12/16 03:11:36;;;;;;;;;;;;;;;6.91;42.14;101183.16;5093147;28;20001;-62
2023/12/16 03:14:02;;;;;;;;;;;;;;;6.89;42.09;101191.34;5113076;28;20097;-64
2023/12/16 03:16:27;;;;;;;;;;;;;;;6.94;41.98;101185.53;5113714;28;19918;-63
2023/12/16 03:18:53;;;;;;;;;;;;;;;6.95;42.25;101168.53;5114007;28;20279;-64
2023/12/16 03:21:18;;;;;;;;;;;;;;;6.92;42.45;101167.00;5099591;28;20256;-65
2023/12/16 03:23:43;;;;;;;;;;;;;;;6.90;42.17;101182.34;5093041;28;19951;-65
2023/12/16 03:26:09;;;;;;;;;;;;;;;6.90;42.39;101181.50;5093106;28;19912;-65
2023/12/16 03:28:34;;;;;;;;;;;;;;;6.91;42.44;101189.38;5092827;28;20012;-64
2023/12/16 03:31:00;;;;;;;;;;;;;;;6.90;42.29;101177.00;5093160;28;19916;-64
2023/12/16 03:33:25;;;;;;;;;;;;;;;6.92;42.26;101185.69;5093299;28;19970;-64
2023/12/16 03:35:50;;;;;;;;;;;;;;;6.96;42.33;101183.56;5105115;28;19911;-64
2023/12/16 03:38:15;;;;;;;;;;;;;;;7.02;42.36;101176.78;5114132;28;19985;-64
2023/12/16 03:40:41;;;;;;;;;;;;;;;7.02;42.61;101164.28;5113348;28;19995;-63
2023/12/16 03:43:06;;;;;;;;;;;;;;;7.06;42.03;101159.47;5113193;28;19958;-63
2023/12/16 03:45:32;;;;;;;;;;;;;;;7.07;42.10;101147.78;5113367;28;20074;-63
2023/12/16 03:47:57;;;;;;;;;;;;;;;7.07;41.95;101151.28;5113622;28;20337;-63
2023/12/16 03:50:22;;;;;;;;;;;;;;;7.09;42.08;101143.94;5111128;28;19916;-63
2023/12/16 03:52:48;;;;;;;;;;;;;;;7.13;42.20;101153.34;5092691;28;19912;-64
2023/12/16 03:55:13;;;;;;;;;;;;;;;7.13;42.17;101134.66;5104789;28;19967;-64
2023/12/16 03:57:38;;;;;;;;;;;;;;;7.12;42.35;101134.81;5096693;28;19958;-62
2023/12/16 04:00:04;;;;;;;;;;;;;;;7.15;42.18;101126.47;5092402;28;20495;-63
2023/12/16 04:02:29;;;;;;;;;;;;;;;7.13;42.57;101125.78;5082196;28;19923;-63
2023/12/16 04:04:54;;;;;;;;;;;;;;;7.17;42.37;101116.50;5072283;28;19916;-64
2023/12/16 04:07:20;;;;;;;;;;;;;;;7.13;41.94;101115.09;5072639;28;19912;-63
2023/12/16 04:09:45;;;;;;;;;;;;;;;7.11;42.01;101109.09;5103885;28;19935;-64
2023/12/16 04:12:11;;;;;;;;;;;;;;;7.14;42.62;101108.78;5116950;28;19926;-64
2023/12/16 04:14:37;;;;;;;;;;;;;;;7.18;42.70;101105.63;5116729;28;19920;-63
2023/12/16 04:17:02;;;;;;;;;;;;;;;7.16;42.79;101094.25;5116503;28;20011;-63
2023/12/16 04:19:28;;;;;;;;;;;;;;;7.19;42.79;101111.84;5117076;28;19912;-64
2023/12/16 04:21:53;;;;;;;;;;;;;;;7.24;42.99;101092.66;5098208;28;20384;-63
2023/12/16 04:24:18;;;;;;;;;;;;;;;7.24;41.86;101103.34;5096233;28;19916;-63
2023/12/16 04:26:44;;;;;;;;;;;;;;;7.24;42.53;101095.31;5095585;28;20002;-64
2023/12/16 04:29:09;;;;;;;;;;;;;;;7.26;42.45;101104.00;5100019;28;19912;-64
2023/12/16 04:31:34;;;;;;;;;;;;;;;7.23;42.12;101107.03;5096015;28;19919;-64
2023/12/16 04:33:59;;;;;;;;;;;;;;;7.23;42.82;101091.00;5096104;28;19912;-64
2023/12/16 04:36:25;;;;;;;;;;;;;;;7.27;42.54;101082.50;5111088;28;20343;-64
2023/12/16 04:38:50;;;;;;;;;;;;;;;7.28;41.77;101080.66;5116294;28;19912;-64
2023/12/16 04:41:18;;;;;;;;;;;;;;;7.31;42.50;101096.38;5116028;28;20387;-64
2023/12/16 04:43:43;;;;;;;;;;;;;;;7.33;42.25;101097.06;5115680;28;19911;-64
2023/12/16 04:46:09;;;;;;;;;;;;;;;7.37;42.47;101093.06;5116200;28;19912;-64
2023/12/16 04:48:34;;;;;;;;;;;;;;;7.43;42.58;101099.63;5116541;28;19912;-63
2023/12/16 04:51:06;;;;;;;;;;;;;;;7.43;42.80;101089.78;5108740;28;19994;-63
2023/12/16 04:53:32;;;;;;;;;;;;;;;7.47;42.89;101091.16;5096060;28;20362;-64
2023/12/16 04:55:57;;;;;;;;;;;;;;;7.50;42.62;101088.16;5077062;28;19922;-64
2023/12/16 04:58:23;;;;;;;;;;;;;;;7.53;42.71;101079.81;5077565;28;19999;-65
2023/12/16 05:00:48;;;;;;;;;;;;;;;7.53;42.72;101098.53;5095552;28;19958;-64
2023/12/16 05:03:13;;;;;;;;;;;;;;;7.53;42.25;101095.84;5094996;28;19920;-64
2023/12/16 05:05:39;;;;;;;;;;;;;;;7.56;42.75;101095.53;5107404;28;19916;-64
2023/12/16 05:08:04;;;;;;;;;;;;;;;7.59;42.44;101102.41;5115562;28;19912;-64
2023/12/16 05:10:30;;;;;;;;;;;;;;;7.63;42.77;101097.56;5115695;28;19968;-64
2023/12/16 05:12:55;;;;;;;;;;;;;;;7.66;42.67;101110.63;5115378;28;20320;-64
2023/12/16 05:15:20;;;;;;;;;;;;;;;7.64;42.50;101097.41;5115308;28;19946;-63
2023/12/16 05:17:46;;;;;;;;;;;;;;;7.64;42.34;101091.25;5115314;28;20011;-63
2023/12/16 05:20:11;;;;;;;;;;;;;;;7.68;42.63;101098.78;5111409;28;19998;-63
2023/12/16 05:22:37;;;;;;;;;;;;;;;7.69;42.24;101087.09;5093824;28;19946;-63
2023/12/16 05:25:03;;;;;;;;;;;;;;;7.74;42.42;101075.91;5095085;28;19923;-63
2023/12/16 05:27:29;;;;;;;;;;;;;;;7.75;42.26;101074.91;5094724;28;19935;-63
2023/12/16 05:29:54;;;;;;;;;;;;;;;7.75;42.57;101075.75;5094946;28;19916;-63
2023/12/16 05:32:19;;;;;;;;;;;;;;;7.79;42.60;101076.28;5095231;28;19920;-63
2023/12/16 05:34:45;;;;;;;;;;;;;;;7.82;42.89;101073.28;5095805;28;19970;-63
2023/12/16 05:37:10;;;;;;;;;;;;;;;7.83;42.62;101076.78;5115472;28;19935;-62
2023/12/16 05:39:35;;;;;;;;;;;;;;;7.84;42.87;101073.97;5096925;28;20016;-63
2023/12/16 05:42:01;;;;;;;;;;;;;;;7.86;42.83;101085.31;5115020;28;20018;-63
2023/12/16 05:44:26;;;;;;;;;;;;;;;7.92;42.98;101090.03;5115290;28;19994;-63
2023/12/16 05:46:51;;;;;;;;;;;;;;;7.94;42.75;101084.53;5115139;28;19912;-63
2023/12/16 05:49:17;;;;;;;;;;;;;;;7.99;42.86;101081.38;5114681;28;19915;-63
2023/12/16 05:51:43;;;;;;;;;;;;;;;8.02;42.62;101081.88;5101501;28;19926;-63
2023/12/16 05:54:08;;;;;;;;;;;;;;;8.06;42.24;101090.41;5093939;28;19978;-62
2023/12/16 05:56:34;;;;;;;;;;;;;;;8.11;42.17;101088.09;5094466;28;19919;-63
2023/12/16 05:58:59;;;;;;;;;;;;;;;8.12;42.06;101079.91;5094515;28;19913;-63
2023/12/16 06:01:25;;;;;;;;;;;;;;;8.15;42.03;101086.75;5094141;28;20376;-63
2023/12/16 06:03:51;;;;;;;;;;;;;;;8.16;42.41;101069.72;5094296;28;19912;-64
2023/12/16 06:06:16;;;;;;;;;;;;;;;8.18;42.36;101073.06;5094176;28;20339;-63
2023/12/16 06:08:42;;;;;;;;;;;;;;;8.21;42.77;101059.38;5108086;28;19911;-63
2023/12/16 06:11:11;;;;;;;;;;;;;;;8.24;42.79;101058.19;5114367;28;19912;-63
2023/12/16 06:13:37;;;;;;;;;;;;;;;8.23;42.66;101045.84;5113252;28;19970;-63
2023/12/16 06:16:03;;;;;;;;;;;;;;;8.22;42.62;101039.63;5093985;28;19916;-64
2023/12/16 06:18:29;;;;;;;;;;;;;;;8.22;42.28;101038.81;5094006;28;19916;-63
2023/12/16 06:20:54;;;;;;;;;;;;;;;8.23;42.33;101040.50;5093541;28;19912;-63
2023/12/16 06:23:19;;;;;;;;;;;;;;;8.24;42.30;101042.16;5093977;28;19920;-63
2023/12/16 06:25:45;;;;;;;;;;;;;;;8.25;42.53;101044.66;5094237;28;19912;-63
2023/12/16 06:28:10;;;;;;;;;;;;;;;8.28;42.79;101055.03;5093936;28;20377;-63
2023/12/16 06:30:35;;;;;;;;;;;;;;;8.33;42.46;101051.88;5093931;28;19919;-63
2023/12/16 06:33:01;;;;;;;;;;;;;;;8.37;42.65;101047.84;5093380;28;19920;-63
2023/12/16 06:35:26;;;;;;;;;;;;;;;8.40;42.32;101044.03;5100901;28;19915;-63
2023/12/16 06:37:51;;;;;;;;;;;;;;;8.42;42.63;101034.84;5114232;28;19950;-63
2023/12/16 06:40:17;;;;;;;;;;;;;;;8.46;42.80;101038.03;5114305;28;20283;-63
2023/12/16 06:42:42;;;;;;;;;;;;;;;8.47;42.30;101024.50;5113916;28;19920;-63
2023/12/16 06:45:08;;;;;;;;;;;;;;;8.48;42.67;101038.69;5113526;28;20387;-63
2023/12/16 06:47:33;;;;;;;;;;;;;;;8.49;42.76;101027.84;5114055;28;19915;-63
2023/12/16 06:49:58;;;;;;;;;;;;;;;8.51;42.59;101030.34;5095048;28;20281;-63
2023/12/16 06:52:24;;;;;;;;;;;;;;;8.53;42.75;101023.81;5093105;28;19912;-64
2023/12/16 06:54:49;;;;;;;;;;;;;;;8.55;42.23;101014.78;5101953;28;19916;-63
2023/12/16 06:57:14;;;;;;;;;;;;;;;8.55;42.61;101020.16;5104382;28;19954;-63
2023/12/16 06:59:40;;;;;;;;;;;;;;;8.55;42.68;101015.63;5113575;28;19923;-63
2023/12/16 07:02:05;;;;;;;;;;;;;;;8.60;42.61;101021.31;5105723;28;19916;-63
2023/12/16 07:04:31;;;;;;;;;;;;;;;8.63;42.44;101010.25;5093363;28;19919;-62
2023/12/16 07:06:56;;;;;;;;;;;;;;;8.64;42.43;101013.78;5074824;28;19912;-63
2023/12/16 07:09:21;;;;;;;;;;;;;;;8.66;42.53;101017.97;5093240;28;20266;-63
2023/12/16 07:11:47;;;;;;;;;;;;;;;8.69;42.60;101006.06;5093270;28;19920;-63
2023/12/16 07:14:12;;;;;;;;;;;;;;;8.70;42.63;101005.09;5092819;28;19923;-64
2023/12/16 07:16:37;;;;;;;;;;;;;;;8.74;42.42;101006.41;5095415;28;20280;-63
2023/12/16 07:19:03;;;;;;;;;;;;;;;8.72;42.81;101003.91;5113695;28;19942;-63
2023/12/16 07:21:28;;;;;;;;;;;;;;;8.76;42.85;100982.16;5114073;28;19922;-63
2023/12/16 07:23:54;;;;;;;;;;;;;;;8.77;42.72;100989.19;5113878;28;19912;-63
2023/12/16 07:26:19;;;;;;;;;;;;;;;8.77;42.79;100976.63;5113624;28;19912;-63
2023/12/16 07:28:45;;;;;;;;;;;;;;;8.81;42.79;100971.78;5113258;28;20291;-63
2023/12/16 07:31:10;;;;;;;;;;;;;;;8.86;42.85;100948.81;5113409;28;19912;-63
2023/12/16 07:33:38;;;;;;;;;;;;;;;8.88;42.85;100957.53;5113462;28;19961;-63
2023/12/16 07:36:04;;;;;;;;;;;;;;;8.92;42.87;100952.66;5100620;28;19912;-63
2023/12/16 07:38:29;;;;;;;;;;;;;;;8.94;42.88;100939.94;5093325;28;20046;-63
2023/12/16 07:40:54;;;;;;;;;;;;;;;8.97;42.70;100936.06;5092879;28;19934;-63
2023/12/16 07:43:20;;;;;;;;;;;;;;;9.00;42.75;100933.88;5092659;28;19920;-63
2023/12/16 07:45:45;;;;;;;;;;;;;;;8.99;42.44;100937.59;5095714;28;19999;-63
2023/12/16 07:48:11;;;;;;;;;;;;;;;8.99;42.79;100924.19;5106002;28;19950;-63
2023/12/16 07:50:36;;;;;;;;;;;;;;;9.00;42.52;100925.84;5113457;28;19912;-63
2023/12/16 07:53:02;;;;;;;;;;;;;;;9.00;42.77;100933.88;5096488;28;19951;-64
2023/12/16 07:55:28;;;;;;;;;;;;;;;9.00;42.83;100922.34;5096602;28;19920;-64
2023/12/16 07:57:54;;;;;;;;;;;;;;;9.03;42.82;100933.56;5096699;28;20265;-64
2023/12/16 08:00:20;;;;;;;;;;;;;;;9.06;42.67;100932.34;5096469;28;19974;-64
2023/12/16 08:02:45;;;;;;;;;;;;;;;9.07;42.64;100918.78;5096469;28;19923;-64
2023/12/16 08:05:10;;;;;;;;;;;;;;;9.07;42.59;100931.38;5096628;28;19919;-64
2023/12/16 08:07:35;;;;;;;;;;;;;;;9.06;42.87;100937.72;5096483;28;20069;-64
2023/12/16 08:10:01;;;;;;;;;;;;;;;9.07;42.92;100912.59;5096656;28;19923;-64
2023/12/16 08:12:26;;;;;;;;;;;;;;;9.03;42.79;100925.50;5096012;28;19924;-64
2023/12/16 08:14:51;;;;;;;;;;;;;;;9.05;42.89;100920.00;5096144;28;20395;-64
2023/12/16 08:17:17;;;;;;;;;;;;;;;9.07;43.13;100913.44;5096335;28;19919;-64
2023/12/16 08:19:43;;;;;;;;;;;;;;;9.08;43.31;100882.97;5096306;28;19916;-64
2023/12/16 08:22:08;;;;;;;;;;;;;;;9.11;43.00;100882.59;5076267;28;19923;-64
2023/12/16 08:24:33;;;;;;;;;;;;;;;9.13;43.02;100876.25;5075957;28;19912;-64
2023/12/16 08:26:59;;;;;;;;;;;;;;;9.16;42.98;100875.91;5075867;28;19912;-64
2023/12/16 08:29:24;;;;;;;;;;;;;;;9.18;43.03;100864.00;5075659;28;19913;-65
2023/12/16 08:31:49;;;;;;;;;;;;;;;9.20;42.96;100874.56;5075821;28;20347;-65
2023/12/16 08:34:15;;;;;;;;;;;;;;;9.23;42.58;100866.13;5075836;28;19958;-63
2023/12/16 08:36:41;;;;;;;;;;;;;;;9.24;43.09;100892.78;5110172;28;19919;-64
2023/12/16 08:39:07;;;;;;;;;;;;;;;9.26;43.26;100912.19;5116381;28;19958;-64
2023/12/16 08:41:32;;;;;;;;;;;;;;;9.25;43.09;100907.03;5105071;28;20075;-64
2023/12/16 08:43:57;;;;;;;;;;;;;;;9.27;42.95;100926.44;5095821;28;19974;-64
2023/12/16 08:46:24;;;;;;;;;;;;;;;9.29;43.09;100927.09;5095857;28;19920;-64
2023/12/16 08:48:50;;;;;;;;;;;;;;;9.32;43.14;100924.06;5095678;28;19957;-64
2023/12/16 08:51:19;;;;;;;;;;;;;;;9.35;43.13;100922.88;5100101;28;19923;-64
2023/12/16 08:53:45;;;;;;;;;;;;;;;9.40;42.89;100915.16;5094957;28;19919;-63
2023/12/16 08:56:10;;;;;;;;;;;;;;;9.42;43.23;100895.22;5095307;28;19916;-63
2023/12/16 08:58:35;;;;;;;;;;;;;;;9.46;42.97;100893.00;5095240;28;19912;-64
2023/12/16 09:01:01;;;;;;;;;;;;;;;9.47;42.96;100906.25;5077019;28;19937;-64
2023/12/16 09:03:26;;;;;;;;;;;;;;;9.50;43.06;100910.41;5095387;28;19981;-64
2023/12/16 09:05:51;;;;;;;;;;;;;;;9.55;42.96;100901.84;5095753;28;19919;-64
2023/12/16 09:08:17;;;;;;;;;;;;;;;9.56;43.11;100898.16;5095332;28;20479;-64
2023/12/16 09:10:42;;;;;;;;;;;;;;;9.58;43.34;100899.63;5095377;28;19916;-64
2023/12/16 09:13:07;;;;;;;;;;;;;;;9.61;43.42;100901.13;5094945;28;19955;-64
2023/12/16 09:15:34;;;;;;;;;;;;;;;9.62;43.03;100900.13;5095644;28;19916;-64
2023/12/16 09:17:59;;;;;;;;;;;;;;;9.65;42.88;100905.97;5095455;28;19934;-64
2023/12/16 09:20:25;;;;;;;;;;;;;;;9.69;43.27;100893.03;5080457;28;19918;-64
2023/12/16 09:22:50;;;;;;;;;;;;;;;9.69;43.39;100887.66;5097216;28;19924;-64
2023/12/16 09:25:15;;;;;;;;;;;;;;;9.72;43.44;100876.59;5115723;28;19919;-64
2023/12/16 09:27:43;;;;;;;;;;;;;;;9.73;43.37;100872.88;5115480;28;19943;-63
2023/12/16 09:30:08;;;;;;;;;;;;;;;9.79;43.20;100872.19;5115210;28;20338;-63
2023/12/16 09:32:34;;;;;;;;;;;;;;;9.86;43.01;100872.28;5115093;28;19912;-63
2023/12/16 09:34:59;;;;;;;;;;;;;;;9.91;43.20;100879.81;5114880;28;19912;-63
2023/12/16 09:37:25;;;;;;;;;;;;;;;9.92;43.12;100887.69;5107457;28;19919;-64
2023/12/16 09:39:50;;;;;;;;;;;;;;;9.95;42.99;100862.34;5094727;28;19916;-65
2023/12/16 09:42:15;;;;;;;;;;;;;;;9.96;42.80;100850.63;5094253;28;20015;-65
2023/12/16 09:44:41;;;;;;;;;;;;;;;9.99;42.49;100842.19;5094939;28;19916;-65
2023/12/16 09:47:11;;;;;;;;;;;;;;;10.04;42.58;100845.16;5108232;28;20284;-65
2023/12/16 09:49:38;;;;;;;;;;;;;;;10.10;42.40;100831.03;5114851;28;20360;-65
2023/12/16 09:52:03;;;;;;;;;;;;;;;10.14;42.29;100826.97;5098604;28;19920;-65
2023/12/16 09:54:29;;;;;;;;;;;;;;;10.17;42.39;100818.53;5100496;28;19918;-65
2023/12/16 09:56:56;;;;;;;;;;;;;;;10.19;42.16;100816.50;5108617;28;20007;-64
2023/12/16 09:59:23;;;;;;;;;;;;;;;10.18;42.59;100812.19;5103146;28;19940;-64
2023/12/16 10:01:50;;;;;;;;;;;;;;;10.20;42.21;100809.31;5094595;28;19916;-64
2023/12/16 10:04:16;;;;;;;;;;;;;;;10.14;42.15;100801.97;5080026;28;19916;-64
2023/12/16 10:06:41;;;;;;;;;;;;;;;10.14;42.52;100792.09;5099326;28;20388;-64
2023/12/16 10:09:06;;;;;;;;;;;;;;;10.23;42.40;100777.56;5094068;28;19916;-64
2023/12/16 10:11:38;;;;;;;;;;;;;;;10.20;42.74;100772.56;5094486;28;20595;-64
2023/12/16 10:14:03;;;;;;;;;;;;;;;10.20;42.57;100779.78;5098680;28;20241;-64
2023/12/16 10:16:29;;;;;;;;;;;;;;;10.16;42.30;100779.31;5114778;28;19941;-64
2023/12/16 10:18:55;;;;;;;;;;;;;;;10.16;42.81;100765.03;5114215;28;20276;-64
2023/12/16 10:21:28;;;;;;;;;;;;;;;10.15;42.57;100764.22;5100624;28;20006;-64
2023/12/16 10:23:58;;;;;;;;;;;;;;;10.19;42.57;100757.47;5094519;28;19916;-64
2023/12/16 10:26:23;;;;;;;;;;;;;;;10.22;42.37;100754.41;5093715;28;19962;-64
2023/12/16 10:28:50;;;;;;;;;;;;;;;10.21;42.28;100760.78;5093958;28;19990;-64
2023/12/16 10:31:18;;;;;;;;;;;;;;;10.28;42.03;100756.34;5094284;28;19912;-64
2023/12/16 10:33:44;;;;;;;;;;;;;;;10.26;42.18;100754.88;5093665;28;19958;-64
2023/12/16 10:36:09;;;;;;;;;;;;;;;10.23;42.10;100742.69;5106931;28;20003;-64
2023/12/16 10:38:35;;;;;;;;;;;;;;;10.23;42.26;100750.72;5114109;28;20429;-64
2023/12/16 10:41:00;;;;;;;;;;;;;;;10.16;42.88;100741.75;5114551;28;19912;-63
2023/12/16 10:43:25;;;;;;;;;;;;;;;10.10;42.90;100734.41;5099342;28;19973;-64
2023/12/16 10:45:51;;;;;;;;;;;;;;;10.12;42.67;100729.69;5093500;28;20391;-64
2023/12/16 10:48:20;;;;;;;;;;;;;;;10.14;42.92;100732.19;5093589;28;19955;-64
2023/12/16 10:50:46;;;;;;;;;;;;;;;10.18;42.55;100728.97;5094071;28;19947;-65
2023/12/16 10:53:22;;;;;;;;;;;;;;;10.17;42.80;100731.84;5112924;28;19974;-63
2023/12/16 10:55:52;;;;;;;;;;;;;;;10.20;42.44;100739.53;5095593;28;19916;-64
2023/12/16 10:58:20;;;;;;;;;;;;;;;10.20;42.44;100732.31;5093622;28;19920;-64
2023/12/16 11:00:48;;;;;;;;;;;;;;;10.23;42.25;100721.22;5074636;28;19944;-64
2023/12/16 11:03:23;;;;;;;;;;;;;;;10.28;42.71;100718.78;5088472;28;19951;-64
2023/12/16 11:05:54;;;;;;;;;;;;;;;10.34;42.73;100714.56;5093668;28;19912;-64
2023/12/16 11:08:20;;;;;;;;;;;;;;;10.37;42.49;100705.31;5104180;28;19912;-64
2023/12/16 11:10:46;;;;;;;;;;;;;;;10.38;42.67;100709.66;5113759;28;20283;-64
2023/12/16 11:13:11;;;;;;;;;;;;;;;10.42;42.78;100721.69;5113487;28;19920;-65
2023/12/16 11:15:38;;;;;;;;;;;;;;;10.45;42.28;100721.31;5095576;28;19919;-65
2023/12/16 11:18:22;;;;;;;;;;;;;;;10.50;41.82;100707.34;5093137;28;20393;-64
2023/12/16 11:20:49;;;;;;;;;;;;;;;10.37;42.82;100708.00;5105307;28;19919;-65
2023/12/16 11:23:16;;;;;;;;;;;;;;;10.38;42.72;100701.59;5117523;28;20018;-64
2023/12/16 11:25:42;;;;;;;;;;;;;;;10.41;42.17;100691.31;5118003;28;19963;-64
2023/12/16 11:28:08;;;;;;;;;;;;;;;10.56;41.90;100685.91;5117713;28;19911;-64
2023/12/16 11:30:34;;;;;;;;;;;;;;;10.50;42.26;100673.25;5104737;28;19912;-65
2023/12/16 11:32:59;;;;;;;;;;;;;;;10.47;42.41;100654.81;5097227;28;20050;-65
2023/12/16 11:35:37;;;;;;;;;;;;;;;10.48;42.32;100653.81;5103876;28;19986;-65
2023/12/16 11:38:03;;;;;;;;;;;;;;;10.51;42.45;100644.53;5116587;28;19916;-65
2023/12/16 11:40:42;;;;;;;;;;;;;;;10.57;42.49;100627.69;5097306;28;19964;-64
2023/12/16 11:43:08;;;;;;;;;;;;;;;10.56;42.71;100628.69;5096613;28;19923;-64
2023/12/16 11:45:37;;;;;;;;;;;;;;;10.59;42.34;100623.78;5097173;28;20327;-65
2023/12/16 11:48:03;;;;;;;;;;;;;;;10.64;42.20;100626.75;5096978;28;19962;-65
2023/12/16 11:50:29;;;;;;;;;;;;;;;10.65;41.77;100620.31;5096707;28;19912;-65
2023/12/16 11:52:54;;;;;;;;;;;;;;;10.63;42.29;100617.00;5107110;28;19916;-65
2023/12/16 11:55:21;;;;;;;;;;;;;;;10.57;42.20;100607.03;5104585;28;19919;-65
2023/12/16 11:57:47;;;;;;;;;;;;;;;10.61;42.06;100608.31;5103950;28;19932;-62
2023/12/16 12:00:13;;;;;;;;;;;;;;;10.67;42.21;100595.16;5105137;28;19918;-60
2023/12/16 12:02:39;;;;;;;;;;;;;;;10.70;42.23;100587.53;5100687;28;19951;-62
2023/12/16 12:05:05;;;;;;;;;;;;;;;10.73;42.41;100579.09;5096514;28;20368;-61
2023/12/16 12:07:31;;;;;;;;;;;;;;;10.77;42.30;100579.53;5097775;28;19955;-63
2023/12/16 12:09:59;;;;;;;;;;;;;;;10.77;42.52;100576.84;5097487;28;19916;-61
2023/12/16 12:12:25;;;;;;;;;;;;;;;10.79;42.19;100566.72;5095682;28;20361;-62
2023/12/16 12:14:50;;;;;;;;;;;;;;;10.80;42.18;100553.13;5095134;28;19976;-61
2023/12/16 12:17:15;;;;;;;;;;;;;;;10.87;42.38;100547.81;5094926;28;19935;-60
2023/12/16 12:19:43;;;;;;;;;;;;;;;10.89;42.38;100542.25;5095110;28;19912;-62
2023/12/16 12:22:08;;;;;;;;;;;;;;;10.91;42.41;100548.25;5074739;28;20258;-61
2023/12/16 12:24:33;;;;;;;;;;;;;;;10.93;41.97;100540.84;5090810;28;19977;-60
2023/12/16 12:26:59;;;;;;;;;;;;;;;10.95;42.27;100544.97;5094577;28;20276;-61
2023/12/16 12:29:25;;;;;;;;;;;;;;;11.00;42.23;100541.72;5095022;28;19912;-62
2023/12/16 12:31:52;;;;;;;;;;;;;;;11.01;42.35;100541.53;5094289;28;19923;-62
2023/12/16 12:34:18;;;;;;;;;;;;;;;11.04;42.29;100538.44;5095420;28;19951;-62
2023/12/16 12:36:45;;;;;;;;;;;;;;;11.02;42.45;100529.75;5096760;28;20007;-62
2023/12/16 12:39:14;;;;;;;;;;;;;;;11.04;42.70;100532.25;5094754;28;19912;-62